Atlantic Elm — 9HA3054 — position and weather

sailwx.info

Track history (hours):
 
Tides and Currents Weather Stations Pressure Air Temp Water Temp Dewpoint Dewpoint Depression Visibility Wind Speed Wind Dir Waves Ship Positions

Atlantic Elm

Last reported at 2014-Aug-22 23:22 UTC. Time now 2014-Aug-31 02:37 UTC.
Position N 26°16' W 079°20'.
Warning: this ship's position is 8 days out of date.

Length 190 m; draft 12.2 m.

Type: Cargo ship. MMSI: 229081000.

Date/timePositionNaut miles runAvg speedWind from/ knotsBaromVisibWave heightAir tempDewpointWater temp
2014-Aug-22 23:22N 26°16' W 079°20'1012.9
2014-Aug-22 22:34N 26°06' W 079°23'1413.5
2014-Aug-22 21:31N 25°53' W 079°28'1313.9
2014-Aug-22 20:33N 25°40' W 079°34'  
2014-Aug-19 03:03N 29°20' W 094°41'5 9.5
2014-Aug-19 02:30N 29°21' W 094°47'1010.4
2014-Aug-19 01:33N 29°30' W 094°52'1110.6
2014-Aug-19 00:33N 29°39' W 094°58'7 7.3
2014-Aug-18 23:33N 29°45' W 095°04'4 4.4
2014-Aug-18 22:34N 29°44' W 095°09'0 0.0
2014-Aug-18 21:32N 29°44' W 095°09'0 0.0
2014-Aug-18 20:32N 29°44' W 095°09'0 0.0
2014-Aug-18 19:32N 29°44' W 095°09'0 0.0
2014-Aug-18 18:32N 29°44' W 095°09'0 0.0
2014-Aug-18 17:32N 29°44' W 095°09'0 0.0
2014-Aug-18 16:32N 29°44' W 095°09'0 0.0
2014-Aug-18 15:29N 29°44' W 095°09'0 0.0
2014-Aug-18 14:32N 29°44' W 095°09'0 0.0
2014-Aug-18 13:32N 29°44' W 095°09'0 0.0
2014-Aug-18 12:32N 29°44' W 095°09'0 0.0
2014-Aug-18 11:32N 29°44' W 095°09'0 0.0
2014-Aug-18 10:32N 29°44' W 095°09'0 0.0
2014-Aug-18 09:32N 29°44' W 095°09'0 0.0
2014-Aug-18 08:32N 29°44' W 095°09'0 0.0
2014-Aug-18 07:32N 29°44' W 095°09'0 0.0
2014-Aug-18 06:32N 29°44' W 095°09'0 0.0
2014-Aug-18 05:32N 29°44' W 095°09'0 0.0
2014-Aug-18 04:32N 29°44' W 095°09'0 0.0
2014-Aug-18 03:32N 29°44' W 095°09'0 0.0
2014-Aug-18 02:32N 29°44' W 095°09'0 0.0
2014-Aug-18 01:32N 29°44' W 095°09'0 0.0
2014-Aug-18 00:32N 29°44' W 095°09'0 0.0
2014-Aug-17 18:32N 29°44' W 095°09'0 0.0
2014-Aug-17 17:32N 29°44' W 095°09'0 0.0
2014-Aug-17 16:32N 29°44' W 095°09'0 0.0
2014-Aug-17 15:32N 29°44' W 095°09'0 0.0
2014-Aug-17 14:32N 29°44' W 095°09'0 0.0
2014-Aug-17 13:32N 29°44' W 095°09'0 0.0
2014-Aug-17 12:32N 29°44' W 095°09'0 0.0
2014-Aug-17 11:32N 29°44' W 095°09'0 0.0
2014-Aug-17 10:32N 29°44' W 095°09'0 0.0
2014-Aug-17 09:32N 29°44' W 095°09'0 0.0
2014-Aug-17 08:32N 29°44' W 095°09'0 0.0
2014-Aug-17 07:32N 29°44' W 095°09'0 0.0
2014-Aug-17 06:32N 29°44' W 095°09'0 0.0
2014-Aug-17 05:32N 29°44' W 095°09'0 0.0
2014-Aug-17 04:32N 29°44' W 095°09'0 0.0
2014-Aug-17 03:32N 29°44' W 095°09'0 0.0
2014-Aug-17 02:32N 29°44' W 095°09'0 0.0
2014-Aug-17 01:32N 29°44' W 095°09'0 0.0
2014-Aug-17 00:32N 29°44' W 095°09'0 0.0
2014-Aug-16 23:32N 29°44' W 095°09'0 0.0
2014-Aug-16 22:32N 29°44' W 095°09'0 0.0
2014-Aug-16 21:32N 29°44' W 095°09'2 2.3
2014-Aug-16 20:33N 29°45' W 095°06'7 6.6
2014-Aug-16 19:33N 29°42' W 094°60'1212.2
2014-Aug-16 18:33N 29°31' W 094°53'1212.0
2014-Aug-16 17:31N 29°21' W 094°45'  
2014-Aug-14 13:28N 29°56' W 090°20'2 1.4
2014-Aug-14 12:23N 29°56' W 090°22'0 0.0
2014-Aug-14 11:29N 29°56' W 090°22'0 0.0
2014-Aug-14 10:23N 29°56' W 090°22'0 0.0
2014-Aug-14 09:23N 29°56' W 090°22'0 0.0
2014-Aug-14 08:23N 29°56' W 090°22'0 0.0
2014-Aug-14 07:23N 29°56' W 090°22'0 0.0
2014-Aug-14 06:29N 29°56' W 090°22'0 0.0
2014-Aug-14 05:23N 29°56' W 090°22'0 0.0
2014-Aug-14 04:29N 29°56' W 090°22'0 0.0
2014-Aug-14 03:32N 29°56' W 090°22'0 0.0
2014-Aug-14 02:32N 29°56' W 090°22'0 0.0
2014-Aug-14 01:32N 29°56' W 090°22'0 0.0
2014-Aug-14 00:32N 29°56' W 090°22'0 0.0
2014-Aug-13 23:29N 29°56' W 090°22'  
Track history (hours):
 
Tides and Currents Weather Stations Pressure Air Temp Water Temp Dewpoint Dewpoint Depression Visibility Wind Speed Wind Dir Waves Ship Positions

Atlantic Elm

Last reported at 2014-Aug-22 23:22 UTC. Time now 2014-Aug-31 02:37 UTC.
Position N 26°16' W 079°20'.
Warning: this ship's position is 8 days out of date.

Length 190 m; draft 12.2 m.

Type: Cargo ship. MMSI: 229081000.

Date/timePositionNaut miles runAvg speedWind from/ knotsBaromVisibWave heightAir tempDewpointWater temp
2014-Aug-22 23:22N 26°16' W 079°20'1012.9
2014-Aug-22 22:34N 26°06' W 079°23'1413.5
2014-Aug-22 21:31N 25°53' W 079°28'1313.9
2014-Aug-22 20:33N 25°40' W 079°34'  
2014-Aug-19 03:03N 29°20' W 094°41'5 9.5
2014-Aug-19 02:30N 29°21' W 094°47'1010.4
2014-Aug-19 01:33N 29°30' W 094°52'1110.6
2014-Aug-19 00:33N 29°39' W 094°58'7 7.3
2014-Aug-18 23:33N 29°45' W 095°04'4 4.4
2014-Aug-18 22:34N 29°44' W 095°09'0 0.0
2014-Aug-18 21:32N 29°44' W 095°09'0 0.0
2014-Aug-18 20:32N 29°44' W 095°09'0 0.0
2014-Aug-18 19:32N 29°44' W 095°09'0 0.0
2014-Aug-18 18:32N 29°44' W 095°09'0 0.0
2014-Aug-18 17:32N 29°44' W 095°09'0 0.0
2014-Aug-18 16:32N 29°44' W 095°09'0 0.0
2014-Aug-18 15:29N 29°44' W 095°09'0 0.0
2014-Aug-18 14:32N 29°44' W 095°09'0 0.0
2014-Aug-18 13:32N 29°44' W 095°09'0 0.0
2014-Aug-18 12:32N 29°44' W 095°09'0 0.0
2014-Aug-18 11:32N 29°44' W 095°09'0 0.0
2014-Aug-18 10:32N 29°44' W 095°09'0 0.0
2014-Aug-18 09:32N 29°44' W 095°09'0 0.0
2014-Aug-18 08:32N 29°44' W 095°09'0 0.0
2014-Aug-18 07:32N 29°44' W 095°09'0 0.0
2014-Aug-18 06:32N 29°44' W 095°09'0 0.0
2014-Aug-18 05:32N 29°44' W 095°09'0 0.0
2014-Aug-18 04:32N 29°44' W 095°09'0 0.0
2014-Aug-18 03:32N 29°44' W 095°09'0 0.0
2014-Aug-18 02:32N 29°44' W 095°09'0 0.0
2014-Aug-18 01:32N 29°44' W 095°09'0 0.0
2014-Aug-18 00:32N 29°44' W 095°09'0 0.0
2014-Aug-17 18:32N 29°44' W 095°09'0 0.0
2014-Aug-17 17:32N 29°44' W 095°09'0 0.0
2014-Aug-17 16:32N 29°44' W 095°09'0 0.0
2014-Aug-17 15:32N 29°44' W 095°09'0 0.0
2014-Aug-17 14:32N 29°44' W 095°09'0 0.0
2014-Aug-17 13:32N 29°44' W 095°09'0 0.0
2014-Aug-17 12:32N 29°44' W 095°09'0 0.0
2014-Aug-17 11:32N 29°44' W 095°09'0 0.0
2014-Aug-17 10:32N 29°44' W 095°09'0 0.0
2014-Aug-17 09:32N 29°44' W 095°09'0 0.0
2014-Aug-17 08:32N 29°44' W 095°09'0 0.0
2014-Aug-17 07:32N 29°44' W 095°09'0 0.0
2014-Aug-17 06:32N 29°44' W 095°09'0 0.0
2014-Aug-17 05:32N 29°44' W 095°09'0 0.0
2014-Aug-17 04:32N 29°44' W 095°09'0 0.0
2014-Aug-17 03:32N 29°44' W 095°09'0 0.0
2014-Aug-17 02:32N 29°44' W 095°09'0 0.0
2014-Aug-17 01:32N 29°44' W 095°09'0 0.0
2014-Aug-17 00:32N 29°44' W 095°09'0 0.0
2014-Aug-16 23:32N 29°44' W 095°09'0 0.0
2014-Aug-16 22:32N 29°44' W 095°09'0 0.0
2014-Aug-16 21:32N 29°44' W 095°09'2 2.3
2014-Aug-16 20:33N 29°45' W 095°06'7 6.6
2014-Aug-16 19:33N 29°42' W 094°60'1212.2
2014-Aug-16 18:33N 29°31' W 094°53'1212.0
2014-Aug-16 17:31N 29°21' W 094°45'  
2014-Aug-14 13:28N 29°56' W 090°20'2 1.4
2014-Aug-14 12:23N 29°56' W 090°22'0 0.0
2014-Aug-14 11:29N 29°56' W 090°22'0 0.0
2014-Aug-14 10:23N 29°56' W 090°22'0 0.0
2014-Aug-14 09:23N 29°56' W 090°22'0 0.0
2014-Aug-14 08:23N 29°56' W 090°22'0 0.0
2014-Aug-14 07:23N 29°56' W 090°22'0 0.0
2014-Aug-14 06:29N 29°56' W 090°22'0 0.0
2014-Aug-14 05:23N 29°56' W 090°22'0 0.0
2014-Aug-14 04:29N 29°56' W 090°22'0 0.0
2014-Aug-14 03:32N 29°56' W 090°22'0 0.0
2014-Aug-14 02:32N 29°56' W 090°22'0 0.0
2014-Aug-14 01:32N 29°56' W 090°22'0 0.0
2014-Aug-14 00:32N 29°56' W 090°22'0 0.0
2014-Aug-13 23:29N 29°56' W 090°22'  

Dump ship's entire track history